Time;durP1;ratioP1;P1;durP2;ratioP2;P2;SDS_P1;SDS_P2;PMS_P1;PMS_P2;Temp;Humidity;BMP_temperature;BMP_pressure;BME280_temperature;BME280_humidity;BME280_pressure;Samples;Min_cycle;Max_cycle;Signal;HPM_P1;HPM_P2
2022/03/13 00:00:17;;;;;;;23.55;11.30;;;;;;;;;;5012687;28;20016;-69
2022/03/13 00:02:45;;;;;;;28.80;11.18;;;;;;;;;;5009164;28;20046;-69
2022/03/13 00:05:14;;;;;;;22.38;11.30;;;;;;;;;;5012436;28;20022;-70
2022/03/13 00:07:40;;;;;;;20.67;9.45;;;;;;;;;;5000138;28;20025;-70
2022/03/13 00:10:05;;;;;;;20.15;11.23;;;;;;;;;;5012100;28;20077;-70
2022/03/13 00:12:31;;;;;;;18.48;9.98;;;;;;;;;;5011386;28;20029;-69
2022/03/13 00:14:57;;;;;;;18.23;9.95;;;;;;;;;;5011019;28;20460;-71
2022/03/13 00:17:27;;;;;;;23.77;11.25;;;;;;;;;;5010658;28;20072;-69
2022/03/13 00:19:52;;;;;;;;;;;;;;;;;;5011166;28;20581;-68
2022/03/13 00:22:18;;;;;;;28.73;11.95;;;;;;;;;;5011106;28;19917;-69
2022/03/13 00:24:43;;;;;;;25.10;11.10;;;;;;;;;;5010867;28;20022;-70
2022/03/13 00:27:08;;;;;;;26.63;10.63;;;;;;;;;;4993844;28;20493;-69
2022/03/13 00:29:34;;;;;;;24.52;11.48;;;;;;;;;;5010557;28;20269;-70
2022/03/13 00:31:59;;;;;;;22.80;11.43;;;;;;;;;;5010511;28;20030;-69
2022/03/13 00:34:25;;;;;;;19.13;9.68;;;;;;;;;;5009411;28;20474;-70
2022/03/13 00:36:50;;;;;;;19.48;9.82;;;;;;;;;;5010193;28;20033;-70
2022/03/13 00:39:16;;;;;;;23.80;11.77;;;;;;;;;;5009841;28;20593;-69
2022/03/13 00:41:41;;;;;;;22.55;9.95;;;;;;;;;;5010016;28;20030;-69
2022/03/13 00:44:06;;;;;;;19.98;10.38;;;;;;;;;;5009464;28;20033;-69
2022/03/13 00:46:31;;;;;;;22.85;11.23;;;;;;;;;;5010089;28;20045;-69
2022/03/13 00:48:57;;;;;;;17.10;9.90;;;;;;;;;;4992120;28;20037;-69
2022/03/13 00:51:22;;;;;;;23.02;9.75;;;;;;;;;;5009699;28;20018;-70
2022/03/13 00:53:47;;;;;;;23.90;11.77;;;;;;;;;;5009894;28;20026;-69
2022/03/13 00:56:13;;;;;;;18.92;8.93;;;;;;;;;;5009796;28;20018;-69
2022/03/13 00:58:40;;;;;;;21.50;10.98;;;;;;;;;;5010160;28;20474;-69
2022/03/13 01:01:05;;;;;;;23.75;11.07;;;;;;;;;;5013151;28;20025;-69
2022/03/13 01:03:37;;;;;;;22.95;10.43;;;;;;;;;;5014082;28;20426;-69
2022/03/13 01:06:06;;;;;;;19.40;10.10;;;;;;;;;;5013518;28;20022;-70
2022/03/13 01:08:31;;;;;;;23.02;10.35;;;;;;;;;;5013286;28;20382;-69
2022/03/13 01:10:56;;;;;;;21.30;10.60;;;;;;;;;;4995246;28;20018;-70
2022/03/13 01:13:22;;;;;;;21.08;9.73;;;;;;;;;;5012813;28;20021;-69
2022/03/13 01:15:49;;;;;;;22.15;10.75;;;;;;;;;;5012425;28;20025;-69
2022/03/13 01:18:14;;;;;;;19.90;10.30;;;;;;;;;;5013048;28;20097;-68
2022/03/13 01:20:40;;;;;;;21.38;9.40;;;;;;;;;;5012923;28;20101;-68
2022/03/13 01:23:07;;;;;;;21.42;10.98;;;;;;;;;;5012728;28;20467;-69
2022/03/13 01:25:32;;;;;;;19.98;9.68;;;;;;;;;;5009362;28;20022;-68
2022/03/13 01:27:57;;;;;;;19.77;10.10;;;;;;;;;;5012846;28;20421;-68
2022/03/13 01:30:22;;;;;;;31.35;9.82;;;;;;;;;;5012431;28;20327;-69
2022/03/13 01:32:51;;;;;;;25.92;10.25;;;;;;;;;;5012627;28;20033;-69
2022/03/13 01:35:20;;;;;;;27.77;10.05;;;;;;;;;;5013041;28;20107;-69
2022/03/13 01:37:46;;;;;;;19.15;10.63;;;;;;;;;;4994772;28;20072;-69
2022/03/13 01:40:12;;;;;;;20.15;10.27;;;;;;;;;;5012549;28;20721;-70
2022/03/13 01:42:40;;;;;;;16.80;9.48;;;;;;;;;;5012860;28;20462;-69
2022/03/13 01:45:06;;;;;;;16.38;8.77;;;;;;;;;;5012695;28;20026;-70
2022/03/13 01:47:31;;;;;;;18.55;9.00;;;;;;;;;;5012095;28;20022;-71
2022/03/13 01:49:57;;;;;;;19.23;9.00;;;;;;;;;;4995172;28;20018;-68
2022/03/13 01:52:26;;;;;;;24.00;9.65;;;;;;;;;;5012898;28;20470;-69
2022/03/13 01:54:52;;;;;;;19.98;8.45;;;;;;;;;;5012425;28;20083;-70
2022/03/13 01:57:18;;;;;;;19.15;8.93;;;;;;;;;;5008064;28;20026;-69
2022/03/13 01:59:44;;;;;;;23.05;9.10;;;;;;;;;;5001322;28;20096;-69
2022/03/13 02:02:09;;;;;;;24.65;8.70;;;;;;;;;;5011735;28;20491;-69
2022/03/13 02:04:34;;;;;;;17.08;8.57;;;;;;;;;;5011684;28;20149;-69
2022/03/13 02:06:59;;;;;;;17.65;8.15;;;;;;;;;;5011982;28;20018;-69
2022/03/13 02:09:26;;;;;;;14.23;7.00;;;;;;;;;;5010703;28;20033;-69
2022/03/13 02:11:53;;;;;;;18.60;9.02;;;;;;;;;;5012251;28;20084;-69
2022/03/13 02:14:21;;;;;;;17.45;9.15;;;;;;;;;;5011835;28;20030;-70
2022/03/13 02:16:47;;;;;;;18.13;5.97;;;;;;;;;;5011878;28;20072;-69
2022/03/13 02:19:12;;;;;;;21.65;9.90;;;;;;;;;;4994297;28;20029;-70
2022/03/13 02:21:40;;;;;;;15.63;8.40;;;;;;;;;;5012358;28;20489;-69
2022/03/13 02:24:09;;;;;;;19.35;8.32;;;;;;;;;;5020278;28;20080;-69
2022/03/13 02:26:34;;;;;;;24.02;9.80;;;;;;;;;;4994418;28;20021;-71
2022/03/13 02:28:59;;;;;;;21.83;8.73;;;;;;;;;;5011258;28;20402;-70
2022/03/13 02:31:25;;;;;;;18.17;8.55;;;;;;;;;;5012025;28;20335;-71
2022/03/13 02:33:52;;;;;;;20.58;9.77;;;;;;;;;;5011511;28;20022;-69
2022/03/13 02:36:32;;;;;;;25.08;7.07;;;;;;;;;;4994658;28;20621;-71
2022/03/13 02:39:01;;;;;;;20.67;8.63;;;;;;;;;;5011506;28;20041;-70
2022/03/13 02:41:27;;;;;;;17.30;9.13;;;;;;;;;;5012056;28;20026;-69
2022/03/13 02:43:52;;;;;;;19.75;8.88;;;;;;;;;;5011847;28;20034;-69
2022/03/13 02:46:22;;;;;;;18.67;9.18;;;;;;;;;;4993926;28;20122;-70
2022/03/13 02:48:48;;;;;;;24.52;8.95;;;;;;;;;;5011099;28;20096;-69
2022/03/13 02:51:13;;;;;;;21.13;9.32;;;;;;;;;;5011419;28;20036;-69
2022/03/13 02:53:39;;;;;;;16.60;6.97;;;;;;;;;;4992500;28;20117;-70
2022/03/13 02:56:05;;;;;;;17.85;9.05;;;;;;;;;;5010824;28;20518;-69
2022/03/13 02:58:30;;;;;;;19.85;9.35;;;;;;;;;;5010402;28;20022;-70
2022/03/13 03:00:56;;;;;;;20.55;10.35;;;;;;;;;;5010728;28;20018;-70
2022/03/13 03:03:21;;;;;;;21.52;9.55;;;;;;;;;;5011127;28;20164;-69
2022/03/13 03:05:47;;;;;;;28.17;8.98;;;;;;;;;;5010475;28;20344;-69
2022/03/13 03:08:12;;;;;;;18.73;8.88;;;;;;;;;;5011626;28;20022;-69
2022/03/13 03:10:38;;;;;;;21.23;9.43;;;;;;;;;;5011099;28;20168;-69
2022/03/13 03:13:04;;;;;;;23.38;9.50;;;;;;;;;;5010870;28;20021;-69
2022/03/13 03:15:29;;;;;;;19.20;9.77;;;;;;;;;;5010388;28;20026;-69
2022/03/13 03:17:54;;;;;;;21.38;9.57;;;;;;;;;;5010959;28;20029;-69
2022/03/13 03:20:20;;;;;;;19.63;8.52;;;;;;;;;;5010662;28;20025;-69
2022/03/13 03:22:47;;;;;;;25.05;8.90;;;;;;;;;;5011328;28;20026;-69
2022/03/13 03:25:12;;;;;;;20.05;9.00;;;;;;;;;;5011114;28;20025;-69
2022/03/13 03:27:39;;;;;;;17.25;9.02;;;;;;;;;;5007874;28;20475;-69
2022/03/13 03:30:04;;;;;;;19.15;9.57;;;;;;;;;;5009842;28;20025;-69
2022/03/13 03:32:30;;;;;;;20.70;7.03;;;;;;;;;;5011018;28;20112;-69
2022/03/13 03:34:55;;;;;;;19.37;9.00;;;;;;;;;;5010904;28;20033;-69
2022/03/13 03:37:20;;;;;;;17.58;8.63;;;;;;;;;;5009973;28;20331;-70
2022/03/13 03:39:45;;;;;;;14.88;7.80;;;;;;;;;;5010731;28;20029;-69
2022/03/13 03:42:11;;;;;;;14.35;7.03;;;;;;;;;;5010347;28;20076;-69
2022/03/13 03:44:36;;;;;;;21.13;9.80;;;;;;;;;;5010680;28;20021;-69
2022/03/13 03:47:01;;;;;;;25.65;9.30;;;;;;;;;;5010205;28;20053;-70
2022/03/13 03:49:26;;;;;;;19.25;8.50;;;;;;;;;;5010456;28;20037;-70
2022/03/13 03:51:52;;;;;;;17.67;8.45;;;;;;;;;;5010496;28;20028;-70
2022/03/13 03:54:17;;;;;;;17.90;8.32;;;;;;;;;;5010419;28;20026;-70
2022/03/13 03:56:43;;;;;;;16.42;8.15;;;;;;;;;;5009831;28;20119;-70
2022/03/13 03:59:08;;;;;;;17.75;8.45;;;;;;;;;;5010047;28;20037;-70
2022/03/13 04:01:36;;;;;;;23.42;8.65;;;;;;;;;;5010180;28;20026;-70
2022/03/13 04:04:01;;;;;;;16.23;8.63;;;;;;;;;;5010708;28;20272;-70
2022/03/13 04:06:27;;;;;;;20.00;9.68;;;;;;;;;;5010697;28;20053;-70
2022/03/13 04:08:52;;;;;;;18.17;8.90;;;;;;;;;;5010294;28;20045;-70
2022/03/13 04:11:17;;;;;;;21.52;8.32;;;;;;;;;;5010866;28;20021;-70
2022/03/13 04:13:42;;;;;;;20.10;8.65;;;;;;;;;;5010129;28;20033;-70
2022/03/13 04:16:08;;;;;;;21.97;8.73;;;;;;;;;;5010085;28;20021;-70
2022/03/13 04:18:36;;;;;;;25.98;8.32;;;;;;;;;;5010360;28;20292;-70
2022/03/13 04:21:03;;;;;;;21.75;9.40;;;;;;;;;;5010210;28;20057;-70
2022/03/13 04:23:29;;;;;;;22.02;8.65;;;;;;;;;;5010594;28;20111;-68
2022/03/13 04:25:54;;;;;;;16.77;8.05;;;;;;;;;;5010094;28;20069;-68
2022/03/13 04:28:19;;;;;;;18.23;7.57;;;;;;;;;;5010543;28;20110;-70
2022/03/13 04:30:47;;;;;;;18.50;7.97;;;;;;;;;;5010538;28;20026;-70
2022/03/13 04:33:16;;;;;;;14.55;7.25;;;;;;;;;;4994287;28;20026;-70
2022/03/13 04:35:41;;;;;;;19.70;8.32;;;;;;;;;;5013711;28;20040;-69
2022/03/13 04:38:06;;;;;;;21.88;8.40;;;;;;;;;;5014186;28;20021;-69
2022/03/13 04:40:31;;;;;;;21.77;8.68;;;;;;;;;;5013916;28;20021;-69
2022/03/13 04:42:56;;;;;;;16.10;7.72;;;;;;;;;;5014272;28;20386;-69
2022/03/13 04:45:24;;;;;;;19.98;8.63;;;;;;;;;;5014068;28;20038;-70
2022/03/13 04:47:49;;;;;;;21.67;9.10;;;;;;;;;;5014180;28;20120;-69
2022/03/13 04:50:15;;;;;;;16.37;8.30;;;;;;;;;;5013302;28;20109;-69
2022/03/13 04:52:40;;;;;;;21.30;8.23;;;;;;;;;;5013753;28;20264;-69
2022/03/13 04:55:05;;;;;;;20.90;8.63;;;;;;;;;;5013556;28;20028;-69
2022/03/13 04:57:31;;;;;;;16.67;7.43;;;;;;;;;;5013972;28;20505;-69
2022/03/13 04:59:56;;;;;;;20.02;8.65;;;;;;;;;;5013699;28;20057;-69
2022/03/13 05:02:21;;;;;;;17.38;7.50;;;;;;;;;;5013512;28;20371;-70
2022/03/13 05:04:47;;;;;;;17.10;7.70;;;;;;;;;;5013922;28;20014;-70
2022/03/13 05:07:12;;;;;;;13.38;7.30;;;;;;;;;;5013455;28;20479;-70
2022/03/13 05:09:38;;;;;;;19.30;7.82;;;;;;;;;;5012800;28;20471;-69
2022/03/13 05:12:05;;;;;;;17.73;8.82;;;;;;;;;;5013512;28;20026;-69
2022/03/13 05:14:30;;;;;;;21.52;8.07;;;;;;;;;;5012815;28;20497;-69
2022/03/13 05:16:55;;;;;;;15.98;8.05;;;;;;;;;;5013394;28;20018;-69
2022/03/13 05:19:20;;;;;;;16.33;8.13;;;;;;;;;;5013041;28;20033;-69
2022/03/13 05:21:46;;;;;;;15.23;7.63;;;;;;;;;;5013405;28;20384;-70
2022/03/13 05:24:11;;;;;;;19.58;8.00;;;;;;;;;;5012725;28;20060;-70
2022/03/13 05:26:36;;;;;;;16.92;8.00;;;;;;;;;;5013129;28;20037;-69
2022/03/13 05:29:01;;;;;;;13.07;6.63;;;;;;;;;;5011866;28;20026;-69
2022/03/13 05:31:27;;;;;;;15.20;6.00;;;;;;;;;;5013585;28;20037;-70
2022/03/13 05:33:52;;;;;;;15.25;7.75;;;;;;;;;;5012890;28;20032;-69
2022/03/13 05:36:17;;;;;;;31.92;8.90;;;;;;;;;;5012232;28;20029;-70
2022/03/13 05:38:43;;;;;;;17.63;7.55;;;;;;;;;;5012884;28;20017;-70
2022/03/13 05:41:08;;;;;;;19.98;8.95;;;;;;;;;;5012981;28;20036;-69
2022/03/13 05:43:34;;;;;;;20.73;7.72;;;;;;;;;;5012764;28;20060;-69
2022/03/13 05:45:59;;;;;;;15.73;7.97;;;;;;;;;;5013145;28;20117;-69
2022/03/13 05:48:25;;;;;;;18.40;7.97;;;;;;;;;;5011925;28;20493;-69
2022/03/13 05:50:51;;;;;;;18.85;7.85;;;;;;;;;;5012534;28;20018;-69
2022/03/13 05:53:17;;;;;;;19.75;8.30;;;;;;;;;;5012285;28;20037;-69
2022/03/13 05:55:43;;;;;;;16.52;7.28;;;;;;;;;;5012486;28;20145;-69
2022/03/13 05:58:08;;;;;;;14.50;7.18;;;;;;;;;;5012096;28;20053;-69
2022/03/13 06:00:33;;;;;;;11.52;5.07;;;;;;;;;;5011807;28;20108;-69
2022/03/13 06:03:00;;;;;;;10.20;5.15;;;;;;;;;;5012908;28;20021;-69
2022/03/13 06:05:25;;;;;;;13.82;6.70;;;;;;;;;;5012228;28;20026;-69
2022/03/13 06:07:51;;;;;;;15.27;7.70;;;;;;;;;;5012369;28;20052;-69
2022/03/13 06:10:16;;;;;;;16.27;6.38;;;;;;;;;;5011711;28;20036;-70
2022/03/13 06:12:42;;;;;;;20.17;7.95;;;;;;;;;;5012677;28;20034;-70
2022/03/13 06:15:08;;;;;;;11.23;5.28;;;;;;;;;;5011784;28;20108;-70
2022/03/13 06:17:37;;;;;;;16.67;8.45;;;;;;;;;;5012360;28;20490;-69
2022/03/13 06:20:02;;;;;;;18.23;8.20;;;;;;;;;;5011977;28;20398;-69
2022/03/13 06:22:28;;;;;;;15.45;6.55;;;;;;;;;;5012211;28;20022;-70
2022/03/13 06:24:53;;;;;;;15.63;7.63;;;;;;;;;;5012063;28;20022;-69
2022/03/13 06:27:18;;;;;;;15.88;7.13;;;;;;;;;;5012547;28;20112;-69
2022/03/13 06:29:44;;;;;;;16.90;7.30;;;;;;;;;;5011556;28;20433;-70
2022/03/13 06:32:09;;;;;;;20.08;8.63;;;;;;;;;;5012483;28;20032;-70
2022/03/13 06:34:34;;;;;;;16.05;6.80;;;;;;;;;;5012058;28;20046;-69
2022/03/13 06:37:00;;;;;;;20.67;6.60;;;;;;;;;;5012474;28;20030;-69
2022/03/13 06:39:25;;;;;;;16.38;7.95;;;;;;;;;;5011590;28;20050;-70
2022/03/13 06:41:51;;;;;;;14.15;7.68;;;;;;;;;;5012003;28;20081;-69
2022/03/13 06:44:16;;;;;;;13.80;6.20;;;;;;;;;;5011331;28;20025;-69
2022/03/13 06:46:41;;;;;;;10.05;5.70;;;;;;;;;;5011984;28;20100;-69
2022/03/13 06:49:07;;;;;;;19.92;7.30;;;;;;;;;;5011062;28;20108;-70
2022/03/13 06:51:32;;;;;;;25.17;6.45;;;;;;;;;;5011631;28;20075;-70
2022/03/13 06:53:58;;;;;;;17.50;8.35;;;;;;;;;;5011522;28;20026;-70
2022/03/13 06:56:24;;;;;;;17.35;8.48;;;;;;;;;;5010638;28;20411;-69
2022/03/13 06:58:49;;;;;;;12.30;6.85;;;;;;;;;;5009351;28;20029;-70
2022/03/13 07:01:14;;;;;;;21.45;8.02;;;;;;;;;;5010911;28;20037;-69
2022/03/13 07:03:40;;;;;;;15.80;6.73;;;;;;;;;;5010222;28;20018;-69
2022/03/13 07:06:05;;;;;;;11.65;5.85;;;;;;;;;;5008577;28;20765;-69
2022/03/13 07:08:32;;;;;;;13.82;6.22;;;;;;;;;;5015964;28;20092;-69
2022/03/13 07:10:58;;;;;;;12.73;6.95;;;;;;;;;;5017149;28;20022;-69
2022/03/13 07:13:24;;;;;;;11.18;5.50;;;;;;;;;;5003570;28;20418;-70
2022/03/13 07:15:51;;;;;;;17.15;7.93;;;;;;;;;;5008381;28;20048;-69
2022/03/13 07:18:17;;;;;;;14.32;6.93;;;;;;;;;;5006392;28;20022;-70
2022/03/13 07:20:42;;;;;;;24.30;8.27;;;;;;;;;;5008269;28;20512;-70
2022/03/13 07:23:08;;;;;;;10.32;4.88;;;;;;;;;;5007185;28;20030;-70
2022/03/13 07:25:33;;;;;;;10.48;4.78;;;;;;;;;;5008084;28;20029;-70
2022/03/13 07:27:58;;;;;;;15.63;7.25;;;;;;;;;;5008645;28;20032;-68
2022/03/13 07:30:24;;;;;;;21.53;6.30;;;;;;;;;;5006873;28;20042;-70
2022/03/13 07:32:49;;;;;;;11.80;5.78;;;;;;;;;;5018546;28;20287;-70
2022/03/13 07:35:14;;;;;;;19.17;8.77;;;;;;;;;;5010779;28;20077;-69
2022/03/13 07:37:39;;;;;;;18.27;6.25;;;;;;;;;;5009059;28;20026;-70
2022/03/13 07:40:05;;;;;;;19.15;6.22;;;;;;;;;;5008225;28;20061;-69
2022/03/13 07:42:30;;;;;;;15.35;7.40;;;;;;;;;;5008502;28;20037;-69
2022/03/13 07:44:55;;;;;;;15.15;6.82;;;;;;;;;;5007757;28;20069;-70
2022/03/13 07:47:21;;;;;;;19.27;8.40;;;;;;;;;;5009126;28;20076;-70
2022/03/13 07:49:46;;;;;;;13.80;6.63;;;;;;;;;;5008848;28;20030;-70
2022/03/13 07:52:12;;;;;;;14.80;6.53;;;;;;;;;;5009822;28;20064;-70
2022/03/13 07:54:37;;;;;;;14.40;7.47;;;;;;;;;;5011048;28;20018;-69
2022/03/13 07:57:02;;;;;;;10.05;5.00;;;;;;;;;;5010414;28;20108;-70
2022/03/13 07:59:28;;;;;;;15.55;7.90;;;;;;;;;;5008881;28;20025;-70
2022/03/13 08:01:53;;;;;;;16.50;7.90;;;;;;;;;;5010300;28;20521;-70
2022/03/13 08:04:19;;;;;;;14.35;6.10;;;;;;;;;;5009869;28;20041;-70
2022/03/13 08:06:45;;;;;;;11.80;5.47;;;;;;;;;;5009411;28;20030;-71
2022/03/13 08:09:10;;;;;;;18.75;7.47;;;;;;;;;;5010015;28;20034;-70
2022/03/13 08:11:35;;;;;;;18.63;6.13;;;;;;;;;;5009959;28;20061;-69
2022/03/13 08:14:04;;;;;;;17.10;7.97;;;;;;;;;;5011350;28;20525;-69
2022/03/13 08:16:29;;;;;;;18.60;9.15;;;;;;;;;;5010889;28;20445;-70
2022/03/13 08:18:54;;;;;;;15.60;9.00;;;;;;;;;;5009666;28;20034;-71
2022/03/13 08:21:20;;;;;;;12.95;5.97;;;;;;;;;;5008247;28;20101;-71
2022/03/13 08:23:45;;;;;;;20.38;9.43;;;;;;;;;;5009977;28;20479;-68
2022/03/13 08:26:11;;;;;;;15.60;7.82;;;;;;;;;;5010655;28;20049;-70
2022/03/13 08:28:37;;;;;;;19.10;6.78;;;;;;;;;;5008625;28;20021;-71
2022/03/13 08:31:03;;;;;;;12.82;6.57;;;;;;;;;;5007203;28;20041;-71
2022/03/13 08:33:28;;;;;;;17.58;7.75;;;;;;;;;;5009375;28;20479;-71
2022/03/13 08:35:54;;;;;;;14.75;7.13;;;;;;;;;;5010349;28;20061;-71
2022/03/13 08:38:19;;;;;;;18.58;9.23;;;;;;;;;;5008953;28;20020;-71
2022/03/13 08:40:45;;;;;;;15.40;8.03;;;;;;;;;;5010688;28;20033;-70
2022/03/13 08:43:11;;;;;;;16.48;6.55;;;;;;;;;;5009798;28;20272;-72
2022/03/13 08:45:36;;;;;;;12.30;6.65;;;;;;;;;;5009529;28;20538;-71
2022/03/13 08:48:01;;;;;;;14.85;8.98;;;;;;;;;;5010326;28;20033;-71
2022/03/13 08:50:27;;;;;;;20.42;9.27;;;;;;;;;;5005010;28;20391;-70
2022/03/13 08:52:52;;;;;;;17.63;8.63;;;;;;;;;;4999605;28;20475;-71
2022/03/13 08:55:18;;;;;;;14.03;4.40;;;;;;;;;;5002910;28;20026;-71
2022/03/13 08:57:44;;;;;;;8.80;5.60;;;;;;;;;;5005310;28;20662;-73
2022/03/13 09:00:10;;;;;;;19.55;8.63;;;;;;;;;;5008954;28;20025;-70
2022/03/13 09:02:36;;;;;;;15.65;7.28;;;;;;;;;;5006430;28;20097;-71
2022/03/13 09:05:01;;;;;;;21.50;11.45;;;;;;;;;;5007816;28;20112;-72
2022/03/13 09:07:26;;;;;;;38.35;8.18;;;;;;;;;;5003751;28;20026;-72
2022/03/13 09:09:51;;;;;;;17.67;9.73;;;;;;;;;;5010060;28;20022;-71
2022/03/13 09:12:17;;;;;;;17.20;8.97;;;;;;;;;;5003393;28;20283;-71
2022/03/13 09:14:42;;;;;;;15.90;8.40;;;;;;;;;;4995518;28;20462;-71
2022/03/13 09:17:07;;;;;;;11.63;5.57;;;;;;;;;;5007886;28;20028;-72
2022/03/13 09:19:32;;;;;;;13.15;6.03;;;;;;;;;;5009234;28;20672;-72
2022/03/13 09:21:58;;;;;;;17.55;7.68;;;;;;;;;;5006992;28;20102;-71
2022/03/13 09:24:23;;;;;;;17.40;7.50;;;;;;;;;;5011533;28;20416;-72
2022/03/13 09:26:48;;;;;;;16.52;5.55;;;;;;;;;;5010277;28;20028;-72
2022/03/13 09:29:14;;;;;;;15.70;6.80;;;;;;;;;;4994639;28;20026;-72
2022/03/13 09:31:39;;;;;;;26.77;7.95;;;;;;;;;;5012009;28;20676;-72
2022/03/13 09:34:04;;;;;;;10.82;5.35;;;;;;;;;;5008994;28;20029;-72
2022/03/13 09:36:29;;;;;;;18.40;10.25;;;;;;;;;;5011881;28;20117;-72
2022/03/13 09:38:55;;;;;;;12.63;6.65;;;;;;;;;;5007747;28;20073;-72
2022/03/13 09:41:20;;;;;;;14.07;6.57;;;;;;;;;;5004638;28;20028;-72
2022/03/13 09:43:45;;;;;;;14.55;6.22;;;;;;;;;;5012497;28;20086;-72
2022/03/13 09:46:11;;;;;;;29.42;8.40;;;;;;;;;;5012139;28;20025;-72
2022/03/13 09:48:37;;;;;;;15.85;8.25;;;;;;;;;;5011173;28;20026;-71
2022/03/13 09:51:04;;;;;;;15.98;7.70;;;;;;;;;;5009669;28;20029;-71
2022/03/13 09:53:33;;;;;;;15.02;6.93;;;;;;;;;;5010290;28;20306;-72
2022/03/13 09:56:01;;;;;;;14.25;6.97;;;;;;;;;;5002937;28;20026;-71
2022/03/13 09:58:27;;;;;;;11.60;5.68;;;;;;;;;;5008010;28;20028;-71
2022/03/13 10:00:52;;;;;;;18.83;8.98;;;;;;;;;;5005419;28;20075;-72
2022/03/13 10:03:18;;;;;;;17.58;7.88;;;;;;;;;;5011825;28;20076;-71
2022/03/13 10:05:44;;;;;;;9.30;5.45;;;;;;;;;;5011216;28;20121;-72
2022/03/13 10:08:10;;;;;;;22.00;9.93;;;;;;;;;;5006121;28;20034;-72
2022/03/13 10:10:42;;;;;;;15.35;6.00;;;;;;;;;;5009399;28;20510;-71
2022/03/13 10:13:08;;;;;;;14.85;7.35;;;;;;;;;;5010108;28;20458;-72
2022/03/13 10:15:44;;;;;;;22.67;9.57;;;;;;;;;;5011435;28;20064;-72
2022/03/13 10:18:15;;;;;;;17.02;8.73;;;;;;;;;;5004754;28;20498;-72
2022/03/13 10:20:41;;;;;;;21.30;8.30;;;;;;;;;;5010800;28;20519;-71
2022/03/13 10:23:16;;;;;;;17.08;8.43;;;;;;;;;;5009062;28;20030;-72
2022/03/13 10:25:41;;;;;;;18.13;9.52;;;;;;;;;;5006958;28;20028;-72
2022/03/13 10:28:25;;;;;;;12.52;4.63;;;;;;;;;;5007293;28;20018;-72
2022/03/13 10:31:00;;;;;;;20.10;10.02;;;;;;;;;;5004366;28;20021;-72
2022/03/13 10:33:29;;;;;;;17.73;9.98;;;;;;;;;;5005933;28;20456;-72
2022/03/13 10:36:08;;;;;;;15.55;8.50;;;;;;;;;;5007859;28;20018;-72
2022/03/13 10:38:36;;;;;;;18.42;9.07;;;;;;;;;;5011637;28;20104;-72
2022/03/13 10:41:08;;;;;;;13.68;7.40;;;;;;;;;;4994691;28;20025;-72
2022/03/13 10:43:34;;;;;;;21.75;9.77;;;;;;;;;;5001452;28;20025;-72
2022/03/13 10:46:04;;;;;;;12.70;7.00;;;;;;;;;;5010330;28;20022;-72
2022/03/13 10:48:32;;;;;;;;;;;;;;;;;;5004124;28;20034;-72
2022/03/13 10:50:59;;;;;;;19.23;9.13;;;;;;;;;;5009463;28;19909;-72
2022/03/13 10:53:26;;;;;;;24.42;11.07;;;;;;;;;;5006279;28;20025;-72
2022/03/13 10:56:08;;;;;;;16.33;7.32;;;;;;;;;;5004021;28;20025;-72
2022/03/13 10:58:35;;;;;;;14.10;6.65;;;;;;;;;;5010992;28;20064;-72
2022/03/13 11:01:05;;;;;;;20.90;7.85;;;;;;;;;;4989026;28;20076;-72
2022/03/13 11:03:30;;;;;;;;;;;;;;;;;;5007021;28;20028;-72
2022/03/13 11:05:56;;;;;;;27.42;11.40;;;;;;;;;;5003795;28;19909;-72
2022/03/13 11:08:21;;;;;;;20.90;10.87;;;;;;;;;;5006484;28;20022;-72
2022/03/13 11:10:47;;;;;;;11.10;5.70;;;;;;;;;;5010135;28;20742;-72
2022/03/13 11:13:13;;;;;;;18.25;9.68;;;;;;;;;;5008852;28;20481;-72
2022/03/13 11:15:41;;;;;;;23.13;9.98;;;;;;;;;;5010130;28;20112;-72
2022/03/13 11:18:09;;;;;;;17.40;9.50;;;;;;;;;;5006128;28;20049;-72
2022/03/13 11:20:34;;;;;;;18.58;9.80;;;;;;;;;;5010079;28;20068;-72
2022/03/13 11:23:00;;;;;;;23.33;9.52;;;;;;;;;;5003266;28;20433;-72
2022/03/13 11:25:25;;;;;;;21.60;10.87;;;;;;;;;;5006599;28;20555;-72
2022/03/13 11:27:51;;;;;;;16.52;6.93;;;;;;;;;;5009758;28;20284;-72
2022/03/13 11:30:29;;;;;;;21.17;10.60;;;;;;;;;;5010511;28;20137;-72
2022/03/13 11:32:55;;;;;;;18.40;10.10;;;;;;;;;;5008106;28;20096;-72
2022/03/13 11:35:21;;;;;;;18.38;9.60;;;;;;;;;;5007325;28;20022;-72
2022/03/13 11:37:51;;;;;;;19.52;9.30;;;;;;;;;;5004468;28;20014;-72
2022/03/13 11:40:28;;;;;;;17.88;10.40;;;;;;;;;;5006187;28;20018;-71
2022/03/13 11:42:56;;;;;;;18.30;11.48;;;;;;;;;;5003520;28;20083;-72
2022/03/13 11:45:34;;;;;;;13.95;6.18;;;;;;;;;;5006276;28;20030;-74
2022/03/13 11:48:05;;;;;;;27.70;9.35;;;;;;;;;;5004860;28;20509;-72
2022/03/13 11:50:54;;;;;;;12.82;6.18;;;;;;;;;;5003982;28;20025;-72
2022/03/13 11:53:25;;;;;;;18.75;9.48;;;;;;;;;;5005944;28;20120;-72
2022/03/13 11:55:59;;;;;;;22.77;10.93;;;;;;;;;;5008011;28;20097;-72
2022/03/13 11:58:45;;;;;;;17.58;6.97;;;;;;;;;;5007566;28;20022;-72
2022/03/13 12:01:21;;;;;;;12.05;6.57;;;;;;;;;;5009460;28;20025;-72
2022/03/13 12:04:04;;;;;;;22.77;9.95;;;;;;;;;;5006213;28;20441;-72
2022/03/13 12:06:39;;;;;;;21.30;11.23;;;;;;;;;;5004232;28;20022;-72
2022/03/13 12:09:14;;;;;;;20.55;7.53;;;;;;;;;;5007692;28;20021;-72
2022/03/13 12:11:40;;;;;;;22.50;6.03;;;;;;;;;;5008440;28;20101;-71
2022/03/13 12:14:09;;;;;;;17.77;8.43;;;;;;;;;;5004059;28;20029;-71
2022/03/13 12:16:35;;;;;;;18.50;8.65;;;;;;;;;;5008181;28;20144;-72
2022/03/13 12:19:00;;;;;;;13.48;7.00;;;;;;;;;;5009319;28;20097;-72
2022/03/13 12:21:25;;;;;;;18.30;9.50;;;;;;;;;;5009233;28;20426;-72
2022/03/13 12:23:52;;;;;;;21.53;9.13;;;;;;;;;;5009440;28;20029;-71
2022/03/13 12:26:17;;;;;;;17.70;9.35;;;;;;;;;;5009473;28;20343;-72
2022/03/13 12:28:42;;;;;;;17.23;8.83;;;;;;;;;;5008164;28;20450;-73
2022/03/13 12:31:08;;;;;;;13.52;7.03;;;;;;;;;;5081165;23;20319;-67
2022/03/13 12:33:35;;;;;;;15.18;7.50;;;;;;;;;;5050116;28;20017;-67
2022/03/13 12:36:01;;;;;;;14.13;7.55;;;;;;;;;;5048750;28;20021;-68
2022/03/13 12:38:28;;;;;;;18.92;8.45;;;;;;;;;;5049757;28;20072;-67
2022/03/13 12:40:53;;;;;;;13.50;6.35;;;;;;;;;;5049574;28;20620;-67
2022/03/13 12:43:20;;;;;;;12.43;6.18;;;;;;;;;;5043811;28;20032;-67
2022/03/13 12:45:51;;;;;;;13.60;6.68;;;;;;;;;;5049584;28;20025;-67
2022/03/13 12:48:17;;;;;;;22.10;9.52;;;;;;;;;;5049597;28;20029;-67
2022/03/13 12:50:47;;;;;;;13.05;6.45;;;;;;;;;;5049297;28;20163;-68
2022/03/13 12:53:13;;;;;;;;;;;;;;;;;;5050707;28;20151;-67
2022/03/13 12:55:48;;;;;;;17.05;9.18;;;;;;;;;;5052686;28;20431;-67
2022/03/13 12:58:13;;;;;;;16.30;8.90;;;;;;;;;;5046781;28;20017;-67
2022/03/13 13:00:40;;;;;;;12.15;5.43;;;;;;;;;;5048508;28;20087;-67
2022/03/13 13:03:08;;;;;;;13.70;6.60;;;;;;;;;;5047459;28;20142;-67
2022/03/13 13:05:33;;;;;;;14.13;6.97;;;;;;;;;;5052289;28;20017;-67
2022/03/13 13:07:59;;;;;;;9.80;5.55;;;;;;;;;;5051651;28;20028;-66
2022/03/13 13:10:25;;;;;;;13.68;5.70;;;;;;;;;;5052660;28;20025;-66
2022/03/13 13:12:50;;;;;;;21.88;7.70;;;;;;;;;;5061581;28;20027;-66
2022/03/13 13:15:16;;;;;;;16.50;7.78;;;;;;;;;;5053352;28;20040;-66
2022/03/13 13:17:42;;;;;;;16.45;8.80;;;;;;;;;;5053250;28;20377;-66
2022/03/13 13:20:20;;;;;;;14.10;6.60;;;;;;;;;;5052717;28;20024;-66
2022/03/13 13:22:46;;;;;;;10.23;5.47;;;;;;;;;;5052312;28;20100;-66
2022/03/13 13:25:12;;;;;;;20.40;8.07;;;;;;;;;;5053124;28;20449;-66
2022/03/13 13:27:41;;;;;;;12.63;6.93;;;;;;;;;;5053117;28;20033;-67
2022/03/13 13:30:14;;;;;;;15.27;7.63;;;;;;;;;;5052981;28;20519;-67
2022/03/13 13:32:51;;;;;;;14.93;5.75;;;;;;;;;;5052245;28;20025;-67
2022/03/13 13:35:30;;;;;;;16.58;8.35;;;;;;;;;;5036742;28;20032;-67
2022/03/13 13:37:58;;;;;;;10.23;4.68;;;;;;;;;;5049272;28;20036;-67
2022/03/13 13:40:24;;;;;;;16.25;7.32;;;;;;;;;;5052057;28;20373;-66
2022/03/13 13:42:53;;;;;;;9.88;5.13;;;;;;;;;;5052596;28;20067;-67
2022/03/13 13:45:21;;;;;;;9.95;5.18;;;;;;;;;;5053411;28;20032;-66
2022/03/13 13:47:47;;;;;;;13.32;6.75;;;;;;;;;;5051808;28;20040;-67
2022/03/13 13:50:22;;;;;;;9.43;4.82;;;;;;;;;;5052647;28;20484;-66
2022/03/13 13:53:01;;;;;;;12.98;5.07;;;;;;;;;;5050344;28;20480;-67
2022/03/13 13:55:26;;;;;;;13.40;7.70;;;;;;;;;;5051995;28;20120;-66
2022/03/13 13:58:11;;;;;;;13.77;6.38;;;;;;;;;;5051568;28;20100;-67
2022/03/13 14:00:38;;;;;;;14.57;6.80;;;;;;;;;;5051782;28;20492;-67
2022/03/13 14:03:03;;;;;;;12.60;5.18;;;;;;;;;;5051857;28;20108;-67
2022/03/13 14:05:28;;;;;;;12.00;5.57;;;;;;;;;;5050461;28;20090;-67
2022/03/13 14:07:53;;;;;;;11.63;6.67;;;;;;;;;;5050909;28;20037;-67
2022/03/13 14:10:18;;;;;;;17.93;7.33;;;;;;;;;;5050177;28;20047;-67
2022/03/13 14:12:47;;;;;;;15.30;7.00;;;;;;;;;;5050358;28;20271;-67
2022/03/13 14:15:12;;;;;;;6.28;3.92;;;;;;;;;;5051234;28;20292;-66
2022/03/13 14:17:37;;;;;;;8.70;4.18;;;;;;;;;;5051581;28;20025;-66
2022/03/13 14:20:03;;;;;;;13.60;4.40;;;;;;;;;;5050321;28;20020;-66
2022/03/13 14:22:33;;;;;;;11.48;6.38;;;;;;;;;;5036247;28;20032;-66
2022/03/13 14:24:58;;;;;;;12.30;5.00;;;;;;;;;;5051655;28;20032;-67
2022/03/13 14:27:23;;;;;;;9.43;4.50;;;;;;;;;;5052080;28;20082;-67